Accueil
METAR-TAF:

METAR-TAF

Aéroports :

Aéroport international de Bilbao

Bilbao, Espagne

latitude: 43-18N, longitude: 002-56W, altitude: 42 m

Observation

Le bulletin a été fait il y a 37 minutes, à 01:30 UTC
Vent 1 kt de direction variable
Température 6°C
Humidité 75%
Pression 1024 hPa
Visibilité 10 km ou plus
Quelques nuages à une hauteur de 5000 ft
Nuages épars à une hauteur de 6000 ft

METAR: LEBB 170130Z AUTO VRB01KT 9999 FEW050 SCT060 06/02 Q1024

Heure: 04:07 (02:07 UTC)

Prévision

Le bulletin a été fait il y a 3 heures et 7 minutes, à 23:00 UTC
Prévision valable du 17 à 00 UTC au 17 à 24 UTC
Vent 3 kt de direction variable
Visibilité 10 km ou plus
Quelques nuages à une hauteur de 4500 ft
Temporairement
du 17 à 10 UTC au 17 à 18 UTC
Vent 9 kt de nord

TAF: LEBB 162300Z 1700/1724 VRB03KT 9999 FEW045 TX13/1712Z TN03/1705Z TEMPO 1710/1718 36009KT

Observations et prévisions météorologiques de plus de 4000 aéroports (messages METAR et TAF).

Les stations disponibles sont représentées par des disques jaunes et rouges sur la carte.

Passer la souris dessus pour voir le nom de la station.

Cliquer dessus pour voir les observations et prévisions météorologiques.

Pour changer de carte: cliquez sur les boutons verts avec une croix noire pour zoomer, sur le bouton vert avec un tiret pour effectuer un zoom arrière, ou sur les flèches vertes pour les cartes adjacentes.


METAR-TAF: